sensor_id;sensor_type;location;lat;lon;timestamp;P1;durP1;ratioP1;P2;durP2;ratioP2
27213;SDS011;14723;55.814;37.460;2023-01-30T00:01:33;11.63;;;5.97;;
27213;SDS011;14723;55.814;37.460;2023-01-30T00:04:39;9.68;;;4.85;;
27213;SDS011;14723;55.814;37.460;2023-01-30T00:07:45;9.23;;;4.93;;
27213;SDS011;14723;55.814;37.460;2023-01-30T00:10:51;12.63;;;5.60;;
27213;SDS011;14723;55.814;37.460;2023-01-30T00:13:56;12.88;;;5.30;;
27213;SDS011;14723;55.814;37.460;2023-01-30T00:17:04;10.63;;;5.25;;
27213;SDS011;14723;55.814;37.460;2023-01-30T00:20:10;10.55;;;5.20;;
27213;SDS011;14723;55.814;37.460;2023-01-30T00:23:16;10.93;;;5.60;;
27213;SDS011;14723;55.814;37.460;2023-01-30T00:26:22;11.35;;;5.40;;
27213;SDS011;14723;55.814;37.460;2023-01-30T00:29:27;11.52;;;5.45;;
27213;SDS011;14723;55.814;37.460;2023-01-30T00:32:37;12.73;;;5.57;;
27213;SDS011;14723;55.814;37.460;2023-01-30T00:35:43;18.55;;;6.88;;
27213;SDS011;14723;55.814;37.460;2023-01-30T00:38:48;16.50;;;6.13;;
27213;SDS011;14723;55.814;37.460;2023-01-30T00:41:54;14.20;;;6.57;;
27213;SDS011;14723;55.814;37.460;2023-01-30T00:45:12;10.63;;;5.85;;
27213;SDS011;14723;55.814;37.460;2023-01-30T00:48:33;14.88;;;7.25;;
27213;SDS011;14723;55.814;37.460;2023-01-30T00:51:38;10.43;;;5.93;;
27213;SDS011;14723;55.814;37.460;2023-01-30T00:54:44;13.63;;;5.78;;
27213;SDS011;14723;55.814;37.460;2023-01-30T00:57:52;11.18;;;5.47;;
27213;SDS011;14723;55.814;37.460;2023-01-30T01:00:58;13.45;;;6.15;;
27213;SDS011;14723;55.814;37.460;2023-01-30T01:04:06;12.38;;;6.40;;
27213;SDS011;14723;55.814;37.460;2023-01-30T01:07:12;14.18;;;6.68;;
27213;SDS011;14723;55.814;37.460;2023-01-30T01:10:18;12.70;;;5.50;;
27213;SDS011;14723;55.814;37.460;2023-01-30T01:13:23;14.80;;;6.43;;
27213;SDS011;14723;55.814;37.460;2023-01-30T01:16:29;15.20;;;6.63;;
27213;SDS011;14723;55.814;37.460;2023-01-30T01:19:38;13.30;;;6.03;;
27213;SDS011;14723;55.814;37.460;2023-01-30T01:22:43;14.70;;;6.07;;
27213;SDS011;14723;55.814;37.460;2023-01-30T01:25:54;11.77;;;6.32;;
27213;SDS011;14723;55.814;37.460;2023-01-30T01:28:59;15.20;;;6.50;;
27213;SDS011;14723;55.814;37.460;2023-01-30T01:32:05;15.90;;;6.65;;
27213;SDS011;14723;55.814;37.460;2023-01-30T01:35:13;15.80;;;7.05;;
27213;SDS011;14723;55.814;37.460;2023-01-30T01:41:25;15.93;;;6.80;;
27213;SDS011;14723;55.814;37.460;2023-01-30T01:47:55;13.30;;;6.07;;
27213;SDS011;14723;55.814;37.460;2023-01-30T01:51:05;15.90;;;6.70;;
27213;SDS011;14723;55.814;37.460;2023-01-30T01:54:14;16.30;;;6.50;;
27213;SDS011;14723;55.814;37.460;2023-01-30T01:57:22;14.55;;;7.05;;
27213;SDS011;14723;55.814;37.460;2023-01-30T02:00:29;16.95;;;7.45;;
27213;SDS011;14723;55.814;37.460;2023-01-30T02:03:36;22.05;;;6.72;;
27213;SDS011;14723;55.814;37.460;2023-01-30T02:06:46;12.90;;;6.50;;
27213;SDS011;14723;55.814;37.460;2023-01-30T02:09:51;12.48;;;6.28;;
27213;SDS011;14723;55.814;37.460;2023-01-30T02:12:57;15.48;;;6.63;;
27213;SDS011;14723;55.814;37.460;2023-01-30T02:16:04;15.43;;;6.10;;
27213;SDS011;14723;55.814;37.460;2023-01-30T02:22:31;16.13;;;6.30;;
27213;SDS011;14723;55.814;37.460;2023-01-30T02:25:45;13.75;;;6.07;;
27213;SDS011;14723;55.814;37.460;2023-01-30T02:32:22;14.88;;;6.72;;
27213;SDS011;14723;55.814;37.460;2023-01-30T02:35:31;14.93;;;6.68;;
27213;SDS011;14723;55.814;37.460;2023-01-30T02:38:44;16.02;;;7.15;;
27213;SDS011;14723;55.814;37.460;2023-01-30T02:41:55;14.60;;;6.35;;
27213;SDS011;14723;55.814;37.460;2023-01-30T02:45:05;18.35;;;7.85;;
27213;SDS011;14723;55.814;37.460;2023-01-30T02:48:17;17.00;;;6.55;;
27213;SDS011;14723;55.814;37.460;2023-01-30T02:51:27;16.63;;;6.75;;
27213;SDS011;14723;55.814;37.460;2023-01-30T02:54:33;15.80;;;6.53;;
27213;SDS011;14723;55.814;37.460;2023-01-30T02:57:39;15.48;;;6.55;;
27213;SDS011;14723;55.814;37.460;2023-01-30T03:00:49;18.35;;;6.95;;
27213;SDS011;14723;55.814;37.460;2023-01-30T03:10:41;15.52;;;6.78;;
27213;SDS011;14723;55.814;37.460;2023-01-30T03:13:49;16.35;;;7.47;;
27213;SDS011;14723;55.814;37.460;2023-01-30T03:16:56;15.02;;;7.25;;
27213;SDS011;14723;55.814;37.460;2023-01-30T03:20:03;17.13;;;6.72;;
27213;SDS011;14723;55.814;37.460;2023-01-30T03:23:09;15.45;;;7.25;;
27213;SDS011;14723;55.814;37.460;2023-01-30T03:26:19;15.52;;;6.93;;
27213;SDS011;14723;55.814;37.460;2023-01-30T03:29:25;17.65;;;7.03;;
27213;SDS011;14723;55.814;37.460;2023-01-30T03:32:31;17.50;;;6.90;;
27213;SDS011;14723;55.814;37.460;2023-01-30T03:35:37;16.02;;;7.03;;
27213;SDS011;14723;55.814;37.460;2023-01-30T03:38:46;16.88;;;7.35;;
27213;SDS011;14723;55.814;37.460;2023-01-30T03:41:56;12.27;;;6.45;;
27213;SDS011;14723;55.814;37.460;2023-01-30T03:45:01;17.73;;;7.18;;
27213;SDS011;14723;55.814;37.460;2023-01-30T03:48:07;12.00;;;6.43;;
27213;SDS011;14723;55.814;37.460;2023-01-30T03:51:12;15.45;;;7.43;;
27213;SDS011;14723;55.814;37.460;2023-01-30T03:54:18;13.65;;;6.78;;
27213;SDS011;14723;55.814;37.460;2023-01-30T03:57:26;17.08;;;7.95;;
27213;SDS011;14723;55.814;37.460;2023-01-30T04:00:33;13.60;;;6.82;;
27213;SDS011;14723;55.814;37.460;2023-01-30T04:03:38;16.00;;;7.10;;
27213;SDS011;14723;55.814;37.460;2023-01-30T04:06:44;16.27;;;6.70;;
27213;SDS011;14723;55.814;37.460;2023-01-30T04:09:50;14.10;;;6.72;;
27213;SDS011;14723;55.814;37.460;2023-01-30T04:12:58;14.50;;;7.80;;
27213;SDS011;14723;55.814;37.460;2023-01-30T04:16:15;14.20;;;7.20;;
27213;SDS011;14723;55.814;37.460;2023-01-30T04:19:59;15.95;;;7.35;;
27213;SDS011;14723;55.814;37.460;2023-01-30T04:23:07;13.25;;;7.07;;
27213;SDS011;14723;55.814;37.460;2023-01-30T04:26:13;14.98;;;6.53;;
27213;SDS011;14723;55.814;37.460;2023-01-30T04:29:21;16.65;;;7.55;;
27213;SDS011;14723;55.814;37.460;2023-01-30T04:32:28;15.63;;;6.95;;
27213;SDS011;14723;55.814;37.460;2023-01-30T04:35:33;13.48;;;6.88;;
27213;SDS011;14723;55.814;37.460;2023-01-30T04:38:40;13.70;;;7.10;;
27213;SDS011;14723;55.814;37.460;2023-01-30T04:41:46;13.50;;;6.85;;
27213;SDS011;14723;55.814;37.460;2023-01-30T04:44:54;16.83;;;7.15;;
27213;SDS011;14723;55.814;37.460;2023-01-30T04:48:04;13.88;;;7.10;;
27213;SDS011;14723;55.814;37.460;2023-01-30T04:51:09;15.15;;;7.47;;
27213;SDS011;14723;55.814;37.460;2023-01-30T04:54:16;13.73;;;6.95;;
27213;SDS011;14723;55.814;37.460;2023-01-30T04:57:21;15.10;;;6.78;;
27213;SDS011;14723;55.814;37.460;2023-01-30T05:00:30;11.90;;;6.68;;
27213;SDS011;14723;55.814;37.460;2023-01-30T05:03:35;15.85;;;7.30;;
27213;SDS011;14723;55.814;37.460;2023-01-30T05:06:41;13.15;;;6.70;;
27213;SDS011;14723;55.814;37.460;2023-01-30T05:09:46;12.32;;;6.35;;
27213;SDS011;14723;55.814;37.460;2023-01-30T05:12:52;12.77;;;6.43;;
27213;SDS011;14723;55.814;37.460;2023-01-30T05:16:00;13.00;;;6.72;;
27213;SDS011;14723;55.814;37.460;2023-01-30T05:19:05;10.50;;;4.95;;
27213;SDS011;14723;55.814;37.460;2023-01-30T05:22:11;13.43;;;6.70;;
27213;SDS011;14723;55.814;37.460;2023-01-30T05:25:16;16.70;;;7.32;;
27213;SDS011;14723;55.814;37.460;2023-01-30T05:28:22;12.25;;;6.65;;
27213;SDS011;14723;55.814;37.460;2023-01-30T05:31:30;16.90;;;7.75;;
27213;SDS011;14723;55.814;37.460;2023-01-30T05:34:36;16.40;;;7.43;;
27213;SDS011;14723;55.814;37.460;2023-01-30T05:37:41;17.55;;;8.25;;
27213;SDS011;14723;55.814;37.460;2023-01-30T05:40:47;18.63;;;8.20;;
27213;SDS011;14723;55.814;37.460;2023-01-30T05:44:01;17.60;;;8.70;;
27213;SDS011;14723;55.814;37.460;2023-01-30T05:47:09;19.90;;;9.68;;
27213;SDS011;14723;55.814;37.460;2023-01-30T05:50:15;20.23;;;9.82;;
27213;SDS011;14723;55.814;37.460;2023-01-30T05:53:22;18.38;;;8.73;;
27213;SDS011;14723;55.814;37.460;2023-01-30T05:56:27;21.40;;;8.85;;
27213;SDS011;14723;55.814;37.460;2023-01-30T05:59:34;18.80;;;8.65;;
27213;SDS011;14723;55.814;37.460;2023-01-30T06:02:42;15.68;;;7.90;;
27213;SDS011;14723;55.814;37.460;2023-01-30T06:05:48;18.33;;;7.97;;
27213;SDS011;14723;55.814;37.460;2023-01-30T06:08:54;18.40;;;8.55;;
27213;SDS011;14723;55.814;37.460;2023-01-30T06:11:59;17.13;;;7.60;;
27213;SDS011;14723;55.814;37.460;2023-01-30T06:15:05;18.30;;;7.53;;
27213;SDS011;14723;55.814;37.460;2023-01-30T06:18:14;16.38;;;7.55;;
27213;SDS011;14723;55.814;37.460;2023-01-30T06:21:19;14.27;;;7.28;;
27213;SDS011;14723;55.814;37.460;2023-01-30T06:24:25;14.05;;;6.75;;
27213;SDS011;14723;55.814;37.460;2023-01-30T06:27:30;14.77;;;7.13;;
27213;SDS011;14723;55.814;37.460;2023-01-30T06:30:36;15.43;;;7.70;;
27213;SDS011;14723;55.814;37.460;2023-01-30T06:33:44;16.42;;;8.27;;
27213;SDS011;14723;55.814;37.460;2023-01-30T06:36:50;15.40;;;7.45;;
27213;SDS011;14723;55.814;37.460;2023-01-30T06:39:56;16.45;;;8.07;;
27213;SDS011;14723;55.814;37.460;2023-01-30T06:43:01;13.52;;;7.25;;
27213;SDS011;14723;55.814;37.460;2023-01-30T06:46:07;13.05;;;6.35;;
27213;SDS011;14723;55.814;37.460;2023-01-30T06:49:15;12.68;;;6.43;;
27213;SDS011;14723;55.814;37.460;2023-01-30T06:52:20;15.50;;;6.72;;
27213;SDS011;14723;55.814;37.460;2023-01-30T06:55:26;13.98;;;6.38;;
27213;SDS011;14723;55.814;37.460;2023-01-30T06:58:31;13.60;;;6.63;;
27213;SDS011;14723;55.814;37.460;2023-01-30T07:01:37;12.98;;;6.47;;
27213;SDS011;14723;55.814;37.460;2023-01-30T07:04:45;14.82;;;6.55;;
27213;SDS011;14723;55.814;37.460;2023-01-30T07:07:50;18.05;;;7.40;;
27213;SDS011;14723;55.814;37.460;2023-01-30T07:10:56;16.00;;;6.95;;
27213;SDS011;14723;55.814;37.460;2023-01-30T07:14:01;15.18;;;6.53;;
27213;SDS011;14723;55.814;37.460;2023-01-30T07:17:08;12.30;;;6.15;;
27213;SDS011;14723;55.814;37.460;2023-01-30T07:20:16;15.95;;;7.00;;
27213;SDS011;14723;55.814;37.460;2023-01-30T07:23:22;11.38;;;6.35;;
27213;SDS011;14723;55.814;37.460;2023-01-30T07:26:27;13.07;;;6.65;;
27213;SDS011;14723;55.814;37.460;2023-01-30T07:29:33;14.50;;;6.70;;
27213;SDS011;14723;55.814;37.460;2023-01-30T07:32:39;12.93;;;6.38;;
27213;SDS011;14723;55.814;37.460;2023-01-30T07:35:47;11.27;;;5.57;;
27213;SDS011;14723;55.814;37.460;2023-01-30T07:38:52;10.88;;;5.95;;
27213;SDS011;14723;55.814;37.460;2023-01-30T07:41:59;14.30;;;6.20;;
27213;SDS011;14723;55.814;37.460;2023-01-30T07:45:05;14.52;;;6.63;;
27213;SDS011;14723;55.814;37.460;2023-01-30T07:48:11;11.43;;;5.93;;
27213;SDS011;14723;55.814;37.460;2023-01-30T07:51:20;17.00;;;6.53;;
27213;SDS011;14723;55.814;37.460;2023-01-30T07:54:25;15.43;;;6.30;;
27213;SDS011;14723;55.814;37.460;2023-01-30T07:57:31;14.95;;;6.90;;
27213;SDS011;14723;55.814;37.460;2023-01-30T08:00:36;15.45;;;6.68;;
27213;SDS011;14723;55.814;37.460;2023-01-30T08:03:42;13.80;;;6.68;;
27213;SDS011;14723;55.814;37.460;2023-01-30T08:06:50;14.80;;;6.50;;
27213;SDS011;14723;55.814;37.460;2023-01-30T08:09:56;14.20;;;6.38;;
27213;SDS011;14723;55.814;37.460;2023-01-30T08:13:01;19.38;;;6.57;;
27213;SDS011;14723;55.814;37.460;2023-01-30T08:16:07;14.40;;;6.32;;
27213;SDS011;14723;55.814;37.460;2023-01-30T08:19:13;12.63;;;6.05;;
27213;SDS011;14723;55.814;37.460;2023-01-30T08:22:21;14.02;;;6.60;;
27213;SDS011;14723;55.814;37.460;2023-01-30T08:25:27;12.52;;;6.50;;
27213;SDS011;14723;55.814;37.460;2023-01-30T08:28:32;14.65;;;6.70;;
27213;SDS011;14723;55.814;37.460;2023-01-30T08:31:38;17.95;;;6.85;;
27213;SDS011;14723;55.814;37.460;2023-01-30T08:34:43;16.13;;;6.65;;
27213;SDS011;14723;55.814;37.460;2023-01-30T08:37:52;13.13;;;6.60;;
27213;SDS011;14723;55.814;37.460;2023-01-30T08:40:57;17.75;;;7.28;;
27213;SDS011;14723;55.814;37.460;2023-01-30T08:44:03;19.00;;;6.45;;
27213;SDS011;14723;55.814;37.460;2023-01-30T08:47:08;14.45;;;6.55;;
27213;SDS011;14723;55.814;37.460;2023-01-30T08:50:14;12.85;;;6.70;;
27213;SDS011;14723;55.814;37.460;2023-01-30T08:53:23;14.07;;;7.30;;
27213;SDS011;14723;55.814;37.460;2023-01-30T08:56:28;16.05;;;6.53;;
27213;SDS011;14723;55.814;37.460;2023-01-30T08:59:34;13.38;;;6.43;;
27213;SDS011;14723;55.814;37.460;2023-01-30T09:02:39;13.20;;;6.20;;
27213;SDS011;14723;55.814;37.460;2023-01-30T09:05:52;13.63;;;6.10;;
27213;SDS011;14723;55.814;37.460;2023-01-30T09:09:00;12.95;;;6.05;;
27213;SDS011;14723;55.814;37.460;2023-01-30T09:12:06;13.70;;;6.32;;
27213;SDS011;14723;55.814;37.460;2023-01-30T09:15:11;17.38;;;5.68;;
27213;SDS011;14723;55.814;37.460;2023-01-30T09:18:16;16.13;;;6.30;;
27213;SDS011;14723;55.814;37.460;2023-01-30T09:21:21;13.52;;;5.88;;
27213;SDS011;14723;55.814;37.460;2023-01-30T09:24:29;12.77;;;6.45;;
27213;SDS011;14723;55.814;37.460;2023-01-30T09:27:35;16.17;;;6.63;;
27213;SDS011;14723;55.814;37.460;2023-01-30T09:30:40;12.70;;;6.28;;
27213;SDS011;14723;55.814;37.460;2023-01-30T09:33:46;14.15;;;6.10;;
27213;SDS011;14723;55.814;37.460;2023-01-30T09:36:51;14.15;;;6.07;;
27213;SDS011;14723;55.814;37.460;2023-01-30T09:40:00;15.60;;;5.88;;
27213;SDS011;14723;55.814;37.460;2023-01-30T09:43:09;12.45;;;5.78;;
27213;SDS011;14723;55.814;37.460;2023-01-30T09:46:17;12.40;;;6.28;;
27213;SDS011;14723;55.814;37.460;2023-01-30T09:49:28;14.75;;;6.50;;
27213;SDS011;14723;55.814;37.460;2023-01-30T09:52:38;11.73;;;5.53;;
27213;SDS011;14723;55.814;37.460;2023-01-30T09:55:54;11.55;;;6.05;;
27213;SDS011;14723;55.814;37.460;2023-01-30T09:59:03;15.32;;;5.93;;
27213;SDS011;14723;55.814;37.460;2023-01-30T10:02:16;13.45;;;5.72;;
27213;SDS011;14723;55.814;37.460;2023-01-30T10:05:27;15.38;;;5.80;;
27213;SDS011;14723;55.814;37.460;2023-01-30T10:08:38;16.38;;;5.90;;
27213;SDS011;14723;55.814;37.460;2023-01-30T10:11:53;14.50;;;6.20;;
27213;SDS011;14723;55.814;37.460;2023-01-30T10:15:06;11.77;;;6.22;;
27213;SDS011;14723;55.814;37.460;2023-01-30T10:21:46;18.42;;;7.03;;
27213;SDS011;14723;55.814;37.460;2023-01-30T10:24:56;13.13;;;5.50;;
27213;SDS011;14723;55.814;37.460;2023-01-30T10:28:08;14.93;;;6.03;;
27213;SDS011;14723;55.814;37.460;2023-01-30T10:31:16;14.30;;;5.75;;
27213;SDS011;14723;55.814;37.460;2023-01-30T10:34:24;14.02;;;6.28;;
27213;SDS011;14723;55.814;37.460;2023-01-30T10:37:32;13.05;;;6.28;;
27213;SDS011;14723;55.814;37.460;2023-01-30T10:40:40;12.60;;;5.78;;
27213;SDS011;14723;55.814;37.460;2023-01-30T10:43:51;13.02;;;6.28;;
27213;SDS011;14723;55.814;37.460;2023-01-30T10:50:25;11.43;;;5.85;;
27213;SDS011;14723;55.814;37.460;2023-01-30T10:53:34;14.60;;;7.05;;
27213;SDS011;14723;55.814;37.460;2023-01-30T10:56:42;13.05;;;5.85;;
27213;SDS011;14723;55.814;37.460;2023-01-30T10:59:55;13.20;;;6.28;;
27213;SDS011;14723;55.814;37.460;2023-01-30T11:03:20;11.68;;;6.07;;
27213;SDS011;14723;55.814;37.460;2023-01-30T11:06:25;14.27;;;7.10;;
27213;SDS011;14723;55.814;37.460;2023-01-30T11:09:38;12.00;;;6.45;;
27213;SDS011;14723;55.814;37.460;2023-01-30T11:12:43;14.15;;;6.95;;
27213;SDS011;14723;55.814;37.460;2023-01-30T11:15:53;13.23;;;5.97;;
27213;SDS011;14723;55.814;37.460;2023-01-30T11:19:00;13.52;;;6.82;;
27213;SDS011;14723;55.814;37.460;2023-01-30T11:22:24;16.67;;;6.57;;
27213;SDS011;14723;55.814;37.460;2023-01-30T11:25:31;15.43;;;7.18;;
27213;SDS011;14723;55.814;37.460;2023-01-30T11:29:04;14.88;;;7.25;;
27213;SDS011;14723;55.814;37.460;2023-01-30T11:32:24;13.65;;;7.43;;
27213;SDS011;14723;55.814;37.460;2023-01-30T11:35:30;14.32;;;6.78;;
27213;SDS011;14723;55.814;37.460;2023-01-30T11:38:37;15.70;;;6.40;;
27213;SDS011;14723;55.814;37.460;2023-01-30T11:41:57;16.15;;;7.95;;
27213;SDS011;14723;55.814;37.460;2023-01-30T11:45:09;19.60;;;7.60;;
27213;SDS011;14723;55.814;37.460;2023-01-30T11:48:22;18.15;;;9.07;;
27213;SDS011;14723;55.814;37.460;2023-01-30T11:51:51;15.65;;;7.35;;
27213;SDS011;14723;55.814;37.460;2023-01-30T11:54:57;13.70;;;7.45;;
27213;SDS011;14723;55.814;37.460;2023-01-30T11:58:07;16.25;;;7.85;;
27213;SDS011;14723;55.814;37.460;2023-01-30T12:01:13;17.05;;;7.07;;
27213;SDS011;14723;55.814;37.460;2023-01-30T12:04:21;17.23;;;7.13;;
27213;SDS011;14723;55.814;37.460;2023-01-30T12:07:27;15.88;;;7.70;;
27213;SDS011;14723;55.814;37.460;2023-01-30T12:10:34;16.25;;;6.75;;
27213;SDS011;14723;55.814;37.460;2023-01-30T12:13:44;14.43;;;6.68;;
27213;SDS011;14723;55.814;37.460;2023-01-30T12:16:53;13.07;;;7.00;;
27213;SDS011;14723;55.814;37.460;2023-01-30T12:20:02;14.80;;;8.50;;
27213;SDS011;14723;55.814;37.460;2023-01-30T12:23:11;15.38;;;7.05;;
27213;SDS011;14723;55.814;37.460;2023-01-30T12:26:19;13.90;;;6.15;;
27213;SDS011;14723;55.814;37.460;2023-01-30T12:29:26;14.32;;;7.30;;
27213;SDS011;14723;55.814;37.460;2023-01-30T12:32:32;13.00;;;6.80;;
27213;SDS011;14723;55.814;37.460;2023-01-30T12:35:43;16.80;;;6.30;;
27213;SDS011;14723;55.814;37.460;2023-01-30T12:38:55;14.18;;;6.90;;
27213;SDS011;14723;55.814;37.460;2023-01-30T12:42:16;12.05;;;6.55;;
27213;SDS011;14723;55.814;37.460;2023-01-30T12:45:27;12.25;;;6.20;;
27213;SDS011;14723;55.814;37.460;2023-01-30T12:48:52;13.27;;;6.32;;
27213;SDS011;14723;55.814;37.460;2023-01-30T12:52:20;11.90;;;6.30;;
27213;SDS011;14723;55.814;37.460;2023-01-30T12:55:32;13.95;;;7.47;;
27213;SDS011;14723;55.814;37.460;2023-01-30T12:58:40;12.95;;;6.15;;
27213;SDS011;14723;55.814;37.460;2023-01-30T13:01:53;14.27;;;6.85;;
27213;SDS011;14723;55.814;37.460;2023-01-30T13:05:05;12.70;;;5.68;;
27213;SDS011;14723;55.814;37.460;2023-01-30T13:08:25;16.17;;;6.38;;
27213;SDS011;14723;55.814;37.460;2023-01-30T13:11:38;14.55;;;6.25;;
27213;SDS011;14723;55.814;37.460;2023-01-30T13:14:47;13.90;;;6.10;;
27213;SDS011;14723;55.814;37.460;2023-01-30T13:17:59;13.40;;;6.22;;
27213;SDS011;14723;55.814;37.460;2023-01-30T13:21:09;13.48;;;6.35;;
27213;SDS011;14723;55.814;37.460;2023-01-30T13:24:20;13.45;;;6.30;;
27213;SDS011;14723;55.814;37.460;2023-01-30T13:27:28;13.55;;;6.82;;
27213;SDS011;14723;55.814;37.460;2023-01-30T13:30:35;14.85;;;6.63;;
27213;SDS011;14723;55.814;37.460;2023-01-30T13:33:41;13.10;;;6.13;;
27213;SDS011;14723;55.814;37.460;2023-01-30T13:36:48;11.80;;;6.00;;
27213;SDS011;14723;55.814;37.460;2023-01-30T13:39:59;12.80;;;5.53;;
27213;SDS011;14723;55.814;37.460;2023-01-30T13:43:10;12.15;;;5.95;;
27213;SDS011;14723;55.814;37.460;2023-01-30T13:46:18;14.65;;;7.18;;
27213;SDS011;14723;55.814;37.460;2023-01-30T13:49:29;12.45;;;5.72;;
27213;SDS011;14723;55.814;37.460;2023-01-30T13:52:40;13.50;;;6.22;;
27213;SDS011;14723;55.814;37.460;2023-01-30T13:55:54;15.15;;;7.80;;
27213;SDS011;14723;55.814;37.460;2023-01-30T13:59:01;18.15;;;6.78;;
27213;SDS011;14723;55.814;37.460;2023-01-30T14:08:55;11.27;;;6.00;;
27213;SDS011;14723;55.814;37.460;2023-01-30T14:12:05;11.27;;;5.88;;
27213;SDS011;14723;55.814;37.460;2023-01-30T14:18:18;11.68;;;6.28;;
27213;SDS011;14723;55.814;37.460;2023-01-30T14:21:26;14.73;;;5.90;;
27213;SDS011;14723;55.814;37.460;2023-01-30T14:24:31;12.30;;;6.00;;
27213;SDS011;14723;55.814;37.460;2023-01-30T14:27:39;11.35;;;5.38;;
27213;SDS011;14723;55.814;37.460;2023-01-30T14:30:45;10.23;;;5.35;;
27213;SDS011;14723;55.814;37.460;2023-01-30T14:33:51;7.88;;;4.93;;
27213;SDS011;14723;55.814;37.460;2023-01-30T14:36:56;8.80;;;5.30;;
27213;SDS011;14723;55.814;37.460;2023-01-30T14:40:03;8.98;;;5.40;;
27213;SDS011;14723;55.814;37.460;2023-01-30T14:46:43;7.85;;;5.03;;
27213;SDS011;14723;55.814;37.460;2023-01-30T14:49:59;9.77;;;4.75;;
27213;SDS011;14723;55.814;37.460;2023-01-30T14:53:09;8.60;;;4.95;;
27213;SDS011;14723;55.814;37.460;2023-01-30T14:56:17;8.07;;;4.90;;
27213;SDS011;14723;55.814;37.460;2023-01-30T14:59:24;10.30;;;4.80;;
27213;SDS011;14723;55.814;37.460;2023-01-30T15:02:34;6.90;;;4.47;;
27213;SDS011;14723;55.814;37.460;2023-01-30T15:05:44;7.88;;;4.07;;
27213;SDS011;14723;55.814;37.460;2023-01-30T15:08:53;8.50;;;4.43;;
27213;SDS011;14723;55.814;37.460;2023-01-30T15:12:02;8.57;;;5.00;;
27213;SDS011;14723;55.814;37.460;2023-01-30T15:15:16;7.95;;;4.60;;
27213;SDS011;14723;55.814;37.460;2023-01-30T15:18:30;9.57;;;4.50;;
27213;SDS011;14723;55.814;37.460;2023-01-30T15:21:43;7.95;;;4.45;;
27213;SDS011;14723;55.814;37.460;2023-01-30T15:25:06;8.68;;;4.55;;
27213;SDS011;14723;55.814;37.460;2023-01-30T15:28:18;7.32;;;4.18;;
27213;SDS011;14723;55.814;37.460;2023-01-30T15:31:24;7.32;;;4.07;;
27213;SDS011;14723;55.814;37.460;2023-01-30T15:34:33;6.55;;;4.47;;
27213;SDS011;14723;55.814;37.460;2023-01-30T15:37:40;7.85;;;4.47;;
27213;SDS011;14723;55.814;37.460;2023-01-30T15:40:50;7.43;;;4.55;;
27213;SDS011;14723;55.814;37.460;2023-01-30T15:47:44;7.82;;;4.03;;
27213;SDS011;14723;55.814;37.460;2023-01-30T15:50:53;7.45;;;4.25;;
27213;SDS011;14723;55.814;37.460;2023-01-30T15:54:01;11.27;;;5.03;;
27213;SDS011;14723;55.814;37.460;2023-01-30T15:57:10;9.07;;;5.43;;
27213;SDS011;14723;55.814;37.460;2023-01-30T16:00:20;7.57;;;4.68;;
27213;SDS011;14723;55.814;37.460;2023-01-30T16:03:29;8.60;;;5.10;;
27213;SDS011;14723;55.814;37.460;2023-01-30T16:06:40;8.50;;;5.25;;
27213;SDS011;14723;55.814;37.460;2023-01-30T16:09:52;9.10;;;5.10;;
27213;SDS011;14723;55.814;37.460;2023-01-30T16:13:11;8.40;;;4.85;;
27213;SDS011;14723;55.814;37.460;2023-01-30T16:16:19;8.98;;;4.55;;
27213;SDS011;14723;55.814;37.460;2023-01-30T16:19:26;7.03;;;4.20;;
27213;SDS011;14723;55.814;37.460;2023-01-30T16:22:34;6.85;;;4.30;;
27213;SDS011;14723;55.814;37.460;2023-01-30T16:28:45;9.35;;;4.57;;
27213;SDS011;14723;55.814;37.460;2023-01-30T16:31:52;7.28;;;4.38;;
27213;SDS011;14723;55.814;37.460;2023-01-30T16:38:30;7.50;;;4.68;;
27213;SDS011;14723;55.814;37.460;2023-01-30T16:41:39;6.75;;;4.30;;
27213;SDS011;14723;55.814;37.460;2023-01-30T16:44:45;7.43;;;3.80;;
27213;SDS011;14723;55.814;37.460;2023-01-30T16:47:50;7.35;;;4.55;;
27213;SDS011;14723;55.814;37.460;2023-01-30T16:51:15;8.63;;;4.47;;
27213;SDS011;14723;55.814;37.460;2023-01-30T16:54:24;7.82;;;4.03;;
27213;SDS011;14723;55.814;37.460;2023-01-30T16:57:32;5.72;;;3.55;;
27213;SDS011;14723;55.814;37.460;2023-01-30T17:00:41;8.45;;;3.85;;
27213;SDS011;14723;55.814;37.460;2023-01-30T17:03:57;7.32;;;4.00;;
27213;SDS011;14723;55.814;37.460;2023-01-30T17:07:03;8.52;;;4.57;;
27213;SDS011;14723;55.814;37.460;2023-01-30T17:10:15;8.30;;;3.65;;
27213;SDS011;14723;55.814;37.460;2023-01-30T17:13:42;7.07;;;3.67;;
27213;SDS011;14723;55.814;37.460;2023-01-30T17:16:58;7.55;;;3.70;;
27213;SDS011;14723;55.814;37.460;2023-01-30T17:20:05;6.65;;;3.50;;
27213;SDS011;14723;55.814;37.460;2023-01-30T17:23:11;7.32;;;3.85;;
27213;SDS011;14723;55.814;37.460;2023-01-30T17:26:20;6.78;;;3.60;;
27213;SDS011;14723;55.814;37.460;2023-01-30T17:32:43;6.57;;;3.73;;
27213;SDS011;14723;55.814;37.460;2023-01-30T17:35:51;7.68;;;3.65;;
27213;SDS011;14723;55.814;37.460;2023-01-30T17:38:57;6.45;;;3.42;;
27213;SDS011;14723;55.814;37.460;2023-01-30T17:42:07;8.38;;;3.33;;
27213;SDS011;14723;55.814;37.460;2023-01-30T17:45:13;8.23;;;4.00;;
27213;SDS011;14723;55.814;37.460;2023-01-30T17:48:19;6.95;;;3.83;;
27213;SDS011;14723;55.814;37.460;2023-01-30T17:51:24;5.55;;;3.15;;
27213;SDS011;14723;55.814;37.460;2023-01-30T17:54:30;8.25;;;3.83;;
27213;SDS011;14723;55.814;37.460;2023-01-30T17:57:46;8.38;;;3.78;;
27213;SDS011;14723;55.814;37.460;2023-01-30T18:00:52;8.80;;;4.25;;
27213;SDS011;14723;55.814;37.460;2023-01-30T18:03:57;6.68;;;3.72;;
27213;SDS011;14723;55.814;37.460;2023-01-30T18:07:03;6.38;;;3.65;;
27213;SDS011;14723;55.814;37.460;2023-01-30T18:10:11;7.20;;;4.03;;
27213;SDS011;14723;55.814;37.460;2023-01-30T18:13:20;7.32;;;3.85;;
27213;SDS011;14723;55.814;37.460;2023-01-30T18:16:26;11.07;;;4.07;;
27213;SDS011;14723;55.814;37.460;2023-01-30T18:19:32;8.68;;;3.70;;
27213;SDS011;14723;55.814;37.460;2023-01-30T18:22:37;7.13;;;3.50;;
27213;SDS011;14723;55.814;37.460;2023-01-30T18:25:43;7.35;;;3.58;;
27213;SDS011;14723;55.814;37.460;2023-01-30T18:28:51;8.00;;;3.85;;
27213;SDS011;14723;55.814;37.460;2023-01-30T18:31:56;8.32;;;3.83;;
27213;SDS011;14723;55.814;37.460;2023-01-30T18:35:07;8.02;;;4.10;;
27213;SDS011;14723;55.814;37.460;2023-01-30T18:38:12;10.95;;;4.50;;
27213;SDS011;14723;55.814;37.460;2023-01-30T18:41:18;9.52;;;4.65;;
27213;SDS011;14723;55.814;37.460;2023-01-30T18:44:27;7.93;;;4.53;;
27213;SDS011;14723;55.814;37.460;2023-01-30T18:47:32;6.82;;;4.00;;
27213;SDS011;14723;55.814;37.460;2023-01-30T18:50:38;9.27;;;4.13;;
27213;SDS011;14723;55.814;37.460;2023-01-30T18:53:43;6.93;;;4.57;;
27213;SDS011;14723;55.814;37.460;2023-01-30T18:56:49;6.80;;;4.47;;
27213;SDS011;14723;55.814;37.460;2023-01-30T18:59:57;8.60;;;4.13;;
27213;SDS011;14723;55.814;37.460;2023-01-30T19:03:04;6.43;;;3.63;;
27213;SDS011;14723;55.814;37.460;2023-01-30T19:06:11;5.05;;;3.30;;
27213;SDS011;14723;55.814;37.460;2023-01-30T19:09:18;6.72;;;3.72;;
27213;SDS011;14723;55.814;37.460;2023-01-30T19:12:24;22.65;;;4.00;;
27213;SDS011;14723;55.814;37.460;2023-01-30T19:15:45;6.05;;;3.60;;
27213;SDS011;14723;55.814;37.460;2023-01-30T19:18:51;8.00;;;4.43;;